sensor_id;sensor_type;location;lat;lon;timestamp;temperature;humidity
17659;DHT22;8948;51.534;8.262;2023-09-12T00:00:34;23.90;64.30
17659;DHT22;8948;51.534;8.262;2023-09-12T00:05:34;23.90;64.50
17659;DHT22;8948;51.534;8.262;2023-09-12T00:10:35;23.80;64.80
17659;DHT22;8948;51.534;8.262;2023-09-12T00:15:36;23.70;65.30
17659;DHT22;8948;51.534;8.262;2023-09-12T00:20:36;23.60;65.10
17659;DHT22;8948;51.534;8.262;2023-09-12T00:25:37;23.50;65.30
17659;DHT22;8948;51.534;8.262;2023-09-12T00:30:37;23.50;65.80
17659;DHT22;8948;51.534;8.262;2023-09-12T00:35:38;23.20;67.00
17659;DHT22;8948;51.534;8.262;2023-09-12T00:40:39;23.40;66.40
17659;DHT22;8948;51.534;8.262;2023-09-12T00:45:40;23.40;66.30
17659;DHT22;8948;51.534;8.262;2023-09-12T00:50:41;23.30;66.80
17659;DHT22;8948;51.534;8.262;2023-09-12T00:55:46;23.40;66.90
17659;DHT22;8948;51.534;8.262;2023-09-12T01:00:49;23.30;67.70
17659;DHT22;8948;51.534;8.262;2023-09-12T01:05:50;23.20;67.40
17659;DHT22;8948;51.534;8.262;2023-09-12T01:10:52;23.20;67.00
17659;DHT22;8948;51.534;8.262;2023-09-12T01:15:54;23.10;67.00
17659;DHT22;8948;51.534;8.262;2023-09-12T01:31:47;22.90;67.30
17659;DHT22;8948;51.534;8.262;2023-09-12T01:36:49;22.80;67.30
17659;DHT22;8948;51.534;8.262;2023-09-12T01:41:52;22.80;67.20
17659;DHT22;8948;51.534;8.262;2023-09-12T01:46:54;22.80;67.10
17659;DHT22;8948;51.534;8.262;2023-09-12T01:51:57;22.70;67.20
17659;DHT22;8948;51.534;8.262;2023-09-12T01:56:59;22.60;68.10
17659;DHT22;8948;51.534;8.262;2023-09-12T02:02:01;22.30;68.60
17659;DHT22;8948;51.534;8.262;2023-09-12T02:07:01;22.20;68.40
17659;DHT22;8948;51.534;8.262;2023-09-12T02:12:02;22.00;69.10
17659;DHT22;8948;51.534;8.262;2023-09-12T02:17:03;21.70;70.40
17659;DHT22;8948;51.534;8.262;2023-09-12T02:22:04;21.60;70.20
17659;DHT22;8948;51.534;8.262;2023-09-12T02:27:04;21.60;70.30
17659;DHT22;8948;51.534;8.262;2023-09-12T02:32:05;21.70;69.60
17659;DHT22;8948;51.534;8.262;2023-09-12T02:37:06;21.80;68.90
17659;DHT22;8948;51.534;8.262;2023-09-12T02:42:07;21.90;67.80
17659;DHT22;8948;51.534;8.262;2023-09-12T02:47:07;21.80;68.50
17659;DHT22;8948;51.534;8.262;2023-09-12T02:52:08;21.70;68.70
17659;DHT22;8948;51.534;8.262;2023-09-12T02:57:08;21.70;68.80
17659;DHT22;8948;51.534;8.262;2023-09-12T03:02:09;21.60;68.70
17659;DHT22;8948;51.534;8.262;2023-09-12T03:07:10;21.60;68.70
17659;DHT22;8948;51.534;8.262;2023-09-12T03:12:11;21.60;68.60
17659;DHT22;8948;51.534;8.262;2023-09-12T03:17:11;21.60;68.80
17659;DHT22;8948;51.534;8.262;2023-09-12T03:22:12;21.40;69.30
17659;DHT22;8948;51.534;8.262;2023-09-12T03:27:13;21.40;69.60
17659;DHT22;8948;51.534;8.262;2023-09-12T03:32:13;21.40;69.20
17659;DHT22;8948;51.534;8.262;2023-09-12T03:37:14;21.40;68.80
17659;DHT22;8948;51.534;8.262;2023-09-12T03:42:14;21.40;68.90
17659;DHT22;8948;51.534;8.262;2023-09-12T03:47:15;21.40;68.90
17659;DHT22;8948;51.534;8.262;2023-09-12T03:52:15;21.50;69.20
17659;DHT22;8948;51.534;8.262;2023-09-12T03:57:16;21.50;69.20
17659;DHT22;8948;51.534;8.262;2023-09-12T04:02:16;21.50;70.40
17659;DHT22;8948;51.534;8.262;2023-09-12T04:07:17;21.40;69.00
17659;DHT22;8948;51.534;8.262;2023-09-12T04:12:18;21.50;69.50
17659;DHT22;8948;51.534;8.262;2023-09-12T04:17:18;21.70;69.00
17659;DHT22;8948;51.534;8.262;2023-09-12T04:22:19;21.70;69.40
17659;DHT22;8948;51.534;8.262;2023-09-12T04:27:20;21.60;69.00
17659;DHT22;8948;51.534;8.262;2023-09-12T04:32:20;21.40;69.40
17659;DHT22;8948;51.534;8.262;2023-09-12T04:37:23;21.40;69.40
17659;DHT22;8948;51.534;8.262;2023-09-12T04:42:24;21.30;70.70
17659;DHT22;8948;51.534;8.262;2023-09-12T04:47:24;21.40;70.70
17659;DHT22;8948;51.534;8.262;2023-09-12T04:52:25;21.00;71.80
17659;DHT22;8948;51.534;8.262;2023-09-12T04:57:26;21.00;72.00
17659;DHT22;8948;51.534;8.262;2023-09-12T05:02:26;21.10;71.50
17659;DHT22;8948;51.534;8.262;2023-09-12T05:07:27;21.20;71.00
17659;DHT22;8948;51.534;8.262;2023-09-12T05:12:27;21.10;71.30
17659;DHT22;8948;51.534;8.262;2023-09-12T05:17:28;21.00;72.20
17659;DHT22;8948;51.534;8.262;2023-09-12T05:22:29;20.90;72.70
17659;DHT22;8948;51.534;8.262;2023-09-12T05:27:29;20.80;72.30
17659;DHT22;8948;51.534;8.262;2023-09-12T05:32:30;20.70;73.10
17659;DHT22;8948;51.534;8.262;2023-09-12T05:37:31;20.70;73.40
17659;DHT22;8948;51.534;8.262;2023-09-12T05:42:32;20.70;73.60
17659;DHT22;8948;51.534;8.262;2023-09-12T05:47:32;20.70;73.30
17659;DHT22;8948;51.534;8.262;2023-09-12T05:52:33;20.80;72.90
17659;DHT22;8948;51.534;8.262;2023-09-12T05:57:37;20.90;73.80
17659;DHT22;8948;51.534;8.262;2023-09-12T06:02:40;21.10;73.00
17659;DHT22;8948;51.534;8.262;2023-09-12T06:07:42;21.30;72.20
17659;DHT22;8948;51.534;8.262;2023-09-12T06:12:43;21.40;71.50
17659;DHT22;8948;51.534;8.262;2023-09-12T06:17:43;21.60;70.90
17659;DHT22;8948;51.534;8.262;2023-09-12T06:22:44;21.70;70.60
17659;DHT22;8948;51.534;8.262;2023-09-12T06:27:45;21.80;69.70
17659;DHT22;8948;51.534;8.262;2023-09-12T06:32:45;21.90;69.70
17659;DHT22;8948;51.534;8.262;2023-09-12T06:37:46;22.00;68.80
17659;DHT22;8948;51.534;8.262;2023-09-12T06:42:47;22.20;68.10
17659;DHT22;8948;51.534;8.262;2023-09-12T06:47:48;22.30;68.60
17659;DHT22;8948;51.534;8.262;2023-09-12T06:52:48;22.60;67.90
17659;DHT22;8948;51.534;8.262;2023-09-12T06:57:49;22.50;65.80
17659;DHT22;8948;51.534;8.262;2023-09-12T07:02:49;22.70;67.70
17659;DHT22;8948;51.534;8.262;2023-09-12T07:07:51;22.90;66.50
17659;DHT22;8948;51.534;8.262;2023-09-12T07:12:53;22.90;64.70
17659;DHT22;8948;51.534;8.262;2023-09-12T07:17:54;23.00;65.70
17659;DHT22;8948;51.534;8.262;2023-09-12T07:22:56;23.30;64.80
17659;DHT22;8948;51.534;8.262;2023-09-12T07:27:57;23.50;63.90
17659;DHT22;8948;51.534;8.262;2023-09-12T07:32:57;23.40;64.80
17659;DHT22;8948;51.534;8.262;2023-09-12T07:37:58;23.40;65.80
17659;DHT22;8948;51.534;8.262;2023-09-12T07:42:59;23.30;66.20
17659;DHT22;8948;51.534;8.262;2023-09-12T07:48:00;23.10;68.90
17659;DHT22;8948;51.534;8.262;2023-09-12T07:53:00;23.00;69.20
17659;DHT22;8948;51.534;8.262;2023-09-12T07:58:04;22.90;69.10
17659;DHT22;8948;51.534;8.262;2023-09-12T08:03:04;23.00;69.10
17659;DHT22;8948;51.534;8.262;2023-09-12T08:08:05;23.00;69.20
17659;DHT22;8948;51.534;8.262;2023-09-12T08:13:06;22.70;67.80
17659;DHT22;8948;51.534;8.262;2023-09-12T08:18:07;22.50;70.10
17659;DHT22;8948;51.534;8.262;2023-09-12T08:23:07;22.10;70.20
17659;DHT22;8948;51.534;8.262;2023-09-12T08:28:08;21.60;72.20
17659;DHT22;8948;51.534;8.262;2023-09-12T08:33:09;21.50;71.10
17659;DHT22;8948;51.534;8.262;2023-09-12T08:38:09;21.50;72.10
17659;DHT22;8948;51.534;8.262;2023-09-12T08:43:10;21.70;71.90
17659;DHT22;8948;51.534;8.262;2023-09-12T08:48:11;21.80;72.00
17659;DHT22;8948;51.534;8.262;2023-09-12T08:53:13;21.90;71.60
17659;DHT22;8948;51.534;8.262;2023-09-12T08:58:13;21.90;70.00
17659;DHT22;8948;51.534;8.262;2023-09-12T09:03:14;22.30;70.00
17659;DHT22;8948;51.534;8.262;2023-09-12T09:08:15;23.00;70.70
17659;DHT22;8948;51.534;8.262;2023-09-12T09:13:16;23.60;66.70
17659;DHT22;8948;51.534;8.262;2023-09-12T09:18:17;23.60;66.60
17659;DHT22;8948;51.534;8.262;2023-09-12T09:23:17;24.00;64.40
17659;DHT22;8948;51.534;8.262;2023-09-12T09:28:19;24.50;62.60
17659;DHT22;8948;51.534;8.262;2023-09-12T09:33:20;24.20;62.30
17659;DHT22;8948;51.534;8.262;2023-09-12T09:38:21;24.30;64.10
17659;DHT22;8948;51.534;8.262;2023-09-12T09:43:23;24.80;61.50
17659;DHT22;8948;51.534;8.262;2023-09-12T09:48:26;24.30;62.60
17659;DHT22;8948;51.534;8.262;2023-09-12T09:53:31;24.20;61.20
17659;DHT22;8948;51.534;8.262;2023-09-12T09:58:33;24.20;61.90
17659;DHT22;8948;51.534;8.262;2023-09-12T10:03:36;23.60;62.00
17659;DHT22;8948;51.534;8.262;2023-09-12T10:08:40;23.20;63.40
17659;DHT22;8948;51.534;8.262;2023-09-12T10:13:48;23.10;64.50
17659;DHT22;8948;51.534;8.262;2023-09-12T10:24:23;23.10;62.30
17659;DHT22;8948;51.534;8.262;2023-09-12T10:29:25;23.20;63.80
17659;DHT22;8948;51.534;8.262;2023-09-12T10:34:26;23.70;62.90
17659;DHT22;8948;51.534;8.262;2023-09-12T10:39:28;24.80;61.50
17659;DHT22;8948;51.534;8.262;2023-09-12T10:44:31;25.20;57.90
17659;DHT22;8948;51.534;8.262;2023-09-12T10:49:32;25.20;57.70
17659;DHT22;8948;51.534;8.262;2023-09-12T10:54:40;24.90;59.20
17659;DHT22;8948;51.534;8.262;2023-09-12T11:00:09;24.60;58.30
17659;DHT22;8948;51.534;8.262;2023-09-12T11:10:29;24.40;59.80
17659;DHT22;8948;51.534;8.262;2023-09-12T11:15:31;24.40;59.00
17659;DHT22;8948;51.534;8.262;2023-09-12T11:21:00;24.40;59.50
17659;DHT22;8948;51.534;8.262;2023-09-12T11:26:07;24.40;59.10
17659;DHT22;8948;51.534;8.262;2023-09-12T11:31:08;24.30;59.20
17659;DHT22;8948;51.534;8.262;2023-09-12T11:36:13;24.50;59.30
17659;DHT22;8948;51.534;8.262;2023-09-12T11:41:14;24.60;58.80
17659;DHT22;8948;51.534;8.262;2023-09-12T11:46:15;25.10;59.00
17659;DHT22;8948;51.534;8.262;2023-09-12T11:51:16;25.60;56.10
17659;DHT22;8948;51.534;8.262;2023-09-12T11:56:16;25.50;57.90
17659;DHT22;8948;51.534;8.262;2023-09-12T12:01:17;26.00;58.60
17659;DHT22;8948;51.534;8.262;2023-09-12T12:06:17;26.40;59.80
17659;DHT22;8948;51.534;8.262;2023-09-12T12:11:18;26.50;59.10
17659;DHT22;8948;51.534;8.262;2023-09-12T12:16:19;26.30;59.80
17659;DHT22;8948;51.534;8.262;2023-09-12T12:21:20;26.30;60.20
17659;DHT22;8948;51.534;8.262;2023-09-12T12:26:21;26.80;59.00
17659;DHT22;8948;51.534;8.262;2023-09-12T12:31:22;26.90;58.80
17659;DHT22;8948;51.534;8.262;2023-09-12T12:36:24;27.10;58.30
17659;DHT22;8948;51.534;8.262;2023-09-12T12:41:29;27.30;57.90
17659;DHT22;8948;51.534;8.262;2023-09-12T12:46:30;27.00;58.60
17659;DHT22;8948;51.534;8.262;2023-09-12T12:51:30;27.20;57.60
17659;DHT22;8948;51.534;8.262;2023-09-12T12:56:31;26.80;58.80
17659;DHT22;8948;51.534;8.262;2023-09-12T13:01:37;26.70;58.70
17659;DHT22;8948;51.534;8.262;2023-09-12T13:06:38;26.60;58.10
17659;DHT22;8948;51.534;8.262;2023-09-12T13:11:40;26.30;58.80
17659;DHT22;8948;51.534;8.262;2023-09-12T13:16:40;26.10;59.20
17659;DHT22;8948;51.534;8.262;2023-09-12T13:21:41;26.00;58.80
17659;DHT22;8948;51.534;8.262;2023-09-12T13:26:43;25.70;58.90
17659;DHT22;8948;51.534;8.262;2023-09-12T13:31:43;25.70;59.70
17659;DHT22;8948;51.534;8.262;2023-09-12T13:36:44;25.80;59.10
17659;DHT22;8948;51.534;8.262;2023-09-12T13:41:44;25.80;60.10
17659;DHT22;8948;51.534;8.262;2023-09-12T13:46:45;25.70;59.00
17659;DHT22;8948;51.534;8.262;2023-09-12T13:51:47;25.50;59.10
17659;DHT22;8948;51.534;8.262;2023-09-12T13:56:47;25.60;59.70
17659;DHT22;8948;51.534;8.262;2023-09-12T14:01:48;25.70;60.00
17659;DHT22;8948;51.534;8.262;2023-09-12T14:06:49;25.80;58.20
17659;DHT22;8948;51.534;8.262;2023-09-12T14:11:49;25.90;58.80
17659;DHT22;8948;51.534;8.262;2023-09-12T14:16:50;26.10;58.80
17659;DHT22;8948;51.534;8.262;2023-09-12T14:21:50;26.60;58.70
17659;DHT22;8948;51.534;8.262;2023-09-12T14:26:51;27.30;57.00
17659;DHT22;8948;51.534;8.262;2023-09-12T14:31:52;27.70;55.10
17659;DHT22;8948;51.534;8.262;2023-09-12T14:36:58;28.00;55.20
17659;DHT22;8948;51.534;8.262;2023-09-12T14:41:59;28.10;55.10
17659;DHT22;8948;51.534;8.262;2023-09-12T14:47:01;27.70;54.30
17659;DHT22;8948;51.534;8.262;2023-09-12T14:52:03;27.80;56.00
17659;DHT22;8948;51.534;8.262;2023-09-12T14:57:03;28.10;55.80
17659;DHT22;8948;51.534;8.262;2023-09-12T15:02:04;27.90;56.20
17659;DHT22;8948;51.534;8.262;2023-09-12T15:07:05;28.10;54.20
17659;DHT22;8948;51.534;8.262;2023-09-12T15:12:06;27.80;54.00
17659;DHT22;8948;51.534;8.262;2023-09-12T15:17:06;27.40;55.40
17659;DHT22;8948;51.534;8.262;2023-09-12T15:22:07;27.20;55.70
17659;DHT22;8948;51.534;8.262;2023-09-12T15:27:08;27.20;57.10
17659;DHT22;8948;51.534;8.262;2023-09-12T15:32:08;26.90;57.20
17659;DHT22;8948;51.534;8.262;2023-09-12T15:37:11;26.70;57.70
17659;DHT22;8948;51.534;8.262;2023-09-12T15:42:12;26.60;57.70
17659;DHT22;8948;51.534;8.262;2023-09-12T15:47:12;26.50;57.80
17659;DHT22;8948;51.534;8.262;2023-09-12T15:52:13;26.60;58.10
17659;DHT22;8948;51.534;8.262;2023-09-12T15:57:14;26.40;58.30
17659;DHT22;8948;51.534;8.262;2023-09-12T16:02:16;26.10;60.00
17659;DHT22;8948;51.534;8.262;2023-09-12T16:07:17;26.10;59.10
17659;DHT22;8948;51.534;8.262;2023-09-12T16:12:17;26.10;59.60
17659;DHT22;8948;51.534;8.262;2023-09-12T16:17:18;26.00;59.50
17659;DHT22;8948;51.534;8.262;2023-09-12T16:22:18;26.00;60.40
17659;DHT22;8948;51.534;8.262;2023-09-12T16:27:19;26.00;59.60
17659;DHT22;8948;51.534;8.262;2023-09-12T16:32:23;25.90;59.90
17659;DHT22;8948;51.534;8.262;2023-09-12T16:37:24;25.70;60.90
17659;DHT22;8948;51.534;8.262;2023-09-12T16:42:24;25.60;61.40
17659;DHT22;8948;51.534;8.262;2023-09-12T16:47:27;25.60;61.40
17659;DHT22;8948;51.534;8.262;2023-09-12T16:52:30;25.50;61.40
17659;DHT22;8948;51.534;8.262;2023-09-12T16:57:30;25.30;62.10
17659;DHT22;8948;51.534;8.262;2023-09-12T17:02:31;25.30;61.90
17659;DHT22;8948;51.534;8.262;2023-09-12T17:07:35;25.10;61.80
17659;DHT22;8948;51.534;8.262;2023-09-12T17:12:36;25.00;62.30
17659;DHT22;8948;51.534;8.262;2023-09-12T17:17:37;25.10;62.30
17659;DHT22;8948;51.534;8.262;2023-09-12T17:22:37;25.00;62.40
17659;DHT22;8948;51.534;8.262;2023-09-12T17:27:39;25.00;62.30
17659;DHT22;8948;51.534;8.262;2023-09-12T17:32:41;24.90;62.80
17659;DHT22;8948;51.534;8.262;2023-09-12T17:37:41;24.90;63.00
17659;DHT22;8948;51.534;8.262;2023-09-12T17:42:42;24.70;64.50
17659;DHT22;8948;51.534;8.262;2023-09-12T17:47:42;24.60;65.20
17659;DHT22;8948;51.534;8.262;2023-09-12T17:52:43;24.60;65.70
17659;DHT22;8948;51.534;8.262;2023-09-12T17:57:43;24.50;66.50
17659;DHT22;8948;51.534;8.262;2023-09-12T18:02:44;24.40;66.60
17659;DHT22;8948;51.534;8.262;2023-09-12T18:07:44;24.40;67.10
17659;DHT22;8948;51.534;8.262;2023-09-12T18:12:45;24.20;67.50
17659;DHT22;8948;51.534;8.262;2023-09-12T18:17:45;24.20;67.60
17659;DHT22;8948;51.534;8.262;2023-09-12T18:22:46;24.20;67.90
17659;DHT22;8948;51.534;8.262;2023-09-12T18:27:47;24.10;67.60
17659;DHT22;8948;51.534;8.262;2023-09-12T18:32:47;24.00;68.60
17659;DHT22;8948;51.534;8.262;2023-09-12T18:37:48;24.00;68.40
17659;DHT22;8948;51.534;8.262;2023-09-12T18:42:49;24.00;68.60
17659;DHT22;8948;51.534;8.262;2023-09-12T18:47:49;24.00;68.50
17659;DHT22;8948;51.534;8.262;2023-09-12T18:52:50;23.90;68.70
17659;DHT22;8948;51.534;8.262;2023-09-12T18:57:51;23.90;69.00
17659;DHT22;8948;51.534;8.262;2023-09-12T19:02:51;23.90;69.00
17659;DHT22;8948;51.534;8.262;2023-09-12T19:07:53;23.90;68.90
17659;DHT22;8948;51.534;8.262;2023-09-12T19:12:54;23.90;69.40
17659;DHT22;8948;51.534;8.262;2023-09-12T19:17:55;23.80;69.40
17659;DHT22;8948;51.534;8.262;2023-09-12T19:22:55;23.80;69.70
17659;DHT22;8948;51.534;8.262;2023-09-12T19:27:56;23.90;69.30
17659;DHT22;8948;51.534;8.262;2023-09-12T19:32:57;23.80;69.30
17659;DHT22;8948;51.534;8.262;2023-09-12T19:38:00;23.80;69.50
17659;DHT22;8948;51.534;8.262;2023-09-12T19:43:02;23.80;69.60
17659;DHT22;8948;51.534;8.262;2023-09-12T19:48:05;23.70;70.00
17659;DHT22;8948;51.534;8.262;2023-09-12T19:53:05;23.60;69.90
17659;DHT22;8948;51.534;8.262;2023-09-12T19:58:06;23.50;70.00
17659;DHT22;8948;51.534;8.262;2023-09-12T20:03:06;23.50;70.30
17659;DHT22;8948;51.534;8.262;2023-09-12T20:08:10;23.40;70.40
17659;DHT22;8948;51.534;8.262;2023-09-12T20:13:14;23.20;70.60
17659;DHT22;8948;51.534;8.262;2023-09-12T20:18:14;23.20;70.90
17659;DHT22;8948;51.534;8.262;2023-09-12T20:23:15;23.10;70.90
17659;DHT22;8948;51.534;8.262;2023-09-12T20:28:15;23.10;70.60
17659;DHT22;8948;51.534;8.262;2023-09-12T20:33:16;23.10;70.60
17659;DHT22;8948;51.534;8.262;2023-09-12T20:38:17;23.20;70.60
17659;DHT22;8948;51.534;8.262;2023-09-12T20:43:17;23.20;69.80
17659;DHT22;8948;51.534;8.262;2023-09-12T20:48:18;23.10;71.00
17659;DHT22;8948;51.534;8.262;2023-09-12T20:53:20;22.60;73.50
17659;DHT22;8948;51.534;8.262;2023-09-12T20:58:20;22.50;73.70
17659;DHT22;8948;51.534;8.262;2023-09-12T21:03:21;22.30;74.50
17659;DHT22;8948;51.534;8.262;2023-09-12T21:08:22;22.20;75.10
17659;DHT22;8948;51.534;8.262;2023-09-12T21:13:23;22.30;74.70
17659;DHT22;8948;51.534;8.262;2023-09-12T21:18:24;22.20;75.00
17659;DHT22;8948;51.534;8.262;2023-09-12T21:23:24;22.10;75.50
17659;DHT22;8948;51.534;8.262;2023-09-12T21:28:25;21.90;76.10
17659;DHT22;8948;51.534;8.262;2023-09-12T21:33:25;21.90;75.10
17659;DHT22;8948;51.534;8.262;2023-09-12T21:38:26;21.80;74.70
17659;DHT22;8948;51.534;8.262;2023-09-12T21:43:26;21.80;72.80
17659;DHT22;8948;51.534;8.262;2023-09-12T21:48:27;21.70;73.10
17659;DHT22;8948;51.534;8.262;2023-09-12T21:53:27;21.80;73.20
17659;DHT22;8948;51.534;8.262;2023-09-12T21:58:28;21.90;72.00
17659;DHT22;8948;51.534;8.262;2023-09-12T22:03:29;22.00;72.00
17659;DHT22;8948;51.534;8.262;2023-09-12T22:08:29;22.00;72.20
17659;DHT22;8948;51.534;8.262;2023-09-12T22:13:30;21.90;72.50
17659;DHT22;8948;51.534;8.262;2023-09-12T22:18:31;21.80;73.30
17659;DHT22;8948;51.534;8.262;2023-09-12T22:23:32;21.80;73.40
17659;DHT22;8948;51.534;8.262;2023-09-12T22:28:32;21.80;73.30
17659;DHT22;8948;51.534;8.262;2023-09-12T22:33:33;21.60;73.70
17659;DHT22;8948;51.534;8.262;2023-09-12T22:38:33;21.60;74.10
17659;DHT22;8948;51.534;8.262;2023-09-12T22:43:34;21.70;73.60
17659;DHT22;8948;51.534;8.262;2023-09-12T22:48:37;21.70;73.50
17659;DHT22;8948;51.534;8.262;2023-09-12T22:53:37;21.70;73.50
17659;DHT22;8948;51.534;8.262;2023-09-12T22:58:38;21.70;73.60
17659;DHT22;8948;51.534;8.262;2023-09-12T23:03:38;21.60;74.00
17659;DHT22;8948;51.534;8.262;2023-09-12T23:08:39;21.60;74.40
17659;DHT22;8948;51.534;8.262;2023-09-12T23:13:39;21.70;74.00
17659;DHT22;8948;51.534;8.262;2023-09-12T23:18:40;21.40;75.40
17659;DHT22;8948;51.534;8.262;2023-09-12T23:23:41;21.30;75.10
17659;DHT22;8948;51.534;8.262;2023-09-12T23:28:41;21.40;74.50
17659;DHT22;8948;51.534;8.262;2023-09-12T23:33:42;21.30;74.30
17659;DHT22;8948;51.534;8.262;2023-09-12T23:38:42;21.10;74.30
17659;DHT22;8948;51.534;8.262;2023-09-12T23:43:43;21.20;74.00
17659;DHT22;8948;51.534;8.262;2023-09-12T23:48:43;21.00;74.60
17659;DHT22;8948;51.534;8.262;2023-09-12T23:53:44;21.10;73.20
17659;DHT22;8948;51.534;8.262;2023-09-12T23:58:45;21.20;72.80
